createdAt,value
2019-04-28T00:01:57.963Z,28.95
2019-04-28T00:04:34.214Z,26.30
2019-04-28T00:07:11.911Z,30.88
2019-04-28T00:09:47.977Z,27.93
2019-04-28T00:12:23.924Z,29.85
2019-04-28T00:14:59.888Z,28.20
2019-04-28T00:17:35.850Z,25.62
2019-04-28T00:20:13.647Z,27.50
2019-04-28T00:23:01.394Z,30.95
2019-04-28T00:25:41.066Z,30.55
2019-04-28T00:28:17.079Z,32.25
2019-04-28T00:30:53.130Z,36.38
2019-04-28T00:33:29.099Z,32.25
2019-04-28T00:36:05.145Z,36.05
2019-04-28T00:38:41.572Z,27.37
2019-04-28T00:41:17.596Z,28.25
2019-04-28T00:43:53.637Z,26.55
2019-04-28T00:46:31.193Z,26.55
2019-04-28T00:49:07.291Z,27.48
2019-04-28T00:51:43.421Z,29.40
2019-04-28T00:54:19.401Z,28.85
2019-04-28T00:56:56.074Z,25.62
2019-04-28T00:59:32.039Z,31.40
2019-04-28T01:02:11.127Z,28.07
2019-04-28T01:04:47.217Z,30.48
2019-04-28T01:07:23.184Z,28.23
2019-04-28T01:09:59.132Z,25.52
2019-04-28T01:12:35.397Z,26.65
2019-04-28T01:15:13.819Z,27.85
2019-04-28T01:17:54.383Z,26.02
2019-04-28T01:20:30.340Z,27.32
2019-04-28T01:23:06.287Z,33.08
2019-04-28T01:25:42.241Z,30.40
2019-04-28T01:28:19.488Z,26.93
2019-04-28T01:30:57.538Z,24.87
2019-04-28T01:33:44.389Z,26.33
2019-04-28T01:36:20.413Z,28.00
2019-04-28T01:38:56.363Z,27.37
2019-04-28T01:41:32.336Z,27.35
2019-04-28T01:44:10.097Z,27.02
2019-04-28T01:46:45.874Z,24.27
2019-04-28T01:49:21.841Z,27.42
2019-04-28T01:52:01.047Z,24.92
2019-04-28T01:54:37.123Z,26.80
2019-04-28T01:57:13.077Z,27.60
2019-04-28T01:59:49.970Z,27.13
2019-04-28T02:02:26.016Z,26.70
2019-04-28T02:05:01.983Z,30.37
2019-04-28T02:07:37.941Z,20.97
2019-04-28T02:10:14.100Z,24.27
2019-04-28T02:12:50.393Z,27.77
2019-04-28T02:15:26.514Z,25.48
2019-04-28T02:18:02.471Z,26.77
2019-04-28T02:20:40.076Z,27.15
2019-04-28T02:23:17.556Z,32.33
2019-04-28T02:25:53.518Z,35.50
2019-04-28T02:28:29.685Z,29.87
2019-04-28T02:31:05.645Z,26.57
2019-04-28T02:33:41.808Z,27.70
2019-04-28T02:36:20.690Z,33.05
2019-04-28T02:38:57.698Z,30.30
2019-04-28T02:41:33.953Z,26.27
2019-04-28T02:44:10.453Z,26.15
2019-04-28T02:46:46.912Z,24.98
2019-04-28T02:49:30.512Z,24.35
2019-04-28T02:52:10.678Z,29.42
2019-04-28T02:54:46.801Z,23.95
2019-04-28T02:57:23.015Z,26.10
2019-04-28T03:00:00.433Z,24.32
2019-04-28T03:02:36.562Z,23.77
2019-04-28T03:05:12.533Z,24.82
2019-04-28T03:07:51.431Z,24.82
2019-04-28T03:10:27.610Z,25.15
2019-04-28T03:13:03.565Z,23.83
2019-04-28T03:15:41.398Z,23.27
2019-04-28T03:18:17.221Z,23.02
2019-04-28T03:20:53.174Z,26.97
2019-04-28T03:23:31.141Z,27.85
2019-04-28T03:26:14.828Z,23.85
2019-04-28T03:29:01.342Z,22.13
2019-04-28T03:32:04.235Z,24.23
2019-04-28T03:34:16.612Z,24.90
2019-04-28T03:36:52.655Z,21.57
2019-04-28T03:39:30.301Z,21.73
2019-04-28T03:42:06.438Z,21.07
2019-04-28T03:44:42.386Z,20.77
2019-04-28T03:47:21.038Z,21.25
2019-04-28T03:49:57.124Z,21.85
2019-04-28T03:52:33.133Z,21.93
2019-04-28T03:55:11.749Z,19.35
2019-04-28T03:57:47.080Z,19.87
2019-04-28T04:00:23.051Z,16.93
2019-04-28T04:03:00.808Z,19.62
2019-04-28T04:05:36.690Z,18.48
2019-04-28T04:08:12.654Z,18.50
2019-04-28T04:10:50.449Z,19.35
2019-04-28T04:13:41.601Z,17.52
2019-04-28T04:16:20.677Z,17.25
2019-04-28T04:19:00.734Z,15.58
2019-04-28T04:21:36.173Z,17.55
2019-04-28T04:24:12.078Z,11.97
2019-04-28T04:26:50.491Z,13.15
2019-04-28T04:29:25.755Z,14.60
2019-04-28T04:32:11.713Z,13.50
2019-04-28T04:34:40.851Z,11.53
2019-04-28T04:37:16.950Z,14.63
2019-04-28T04:39:52.859Z,10.75
2019-04-28T04:42:30.602Z,12.80
2019-04-28T04:45:06.968Z,11.57
2019-04-28T04:47:42.926Z,10.95
2019-04-28T04:50:20.879Z,11.10
2019-04-28T04:52:56.456Z,13.10
2019-04-28T04:55:33.088Z,12.40
2019-04-28T04:58:10.765Z,14.25
2019-04-28T05:01:00.839Z,11.33
2019-04-28T05:03:44.421Z,14.03
2019-04-28T05:06:36.811Z,14.25
2019-04-28T05:09:12.752Z,14.13
2019-04-28T05:11:49.968Z,12.68
2019-04-28T05:14:26.048Z,12.13
2019-04-28T05:17:01.932Z,12.68
2019-04-28T05:19:40.041Z,14.60
2019-04-28T05:22:17.057Z,14.70
2019-04-28T05:24:57.496Z,12.28
2019-04-28T05:27:33.420Z,11.38
2019-04-28T05:30:10.428Z,11.43
2019-04-28T05:32:53.639Z,10.60
2019-04-28T05:35:25.258Z,12.23
2019-04-28T05:38:01.281Z,8.00
2019-04-28T05:40:37.238Z,10.45
2019-04-28T05:43:13.218Z,11.15
2019-04-28T05:45:49.889Z,10.28
2019-04-28T05:48:36.425Z,11.28
2019-04-28T05:51:23.582Z,8.78
2019-04-28T05:54:01.337Z,12.15
2019-04-28T05:56:44.654Z,10.18
2019-04-28T05:59:22.134Z,11.30
2019-04-28T06:02:02.297Z,7.72
2019-04-28T06:04:38.321Z,6.95
2019-04-28T06:07:20.233Z,8.73
2019-04-28T06:12:31.993Z,7.53
2019-04-28T06:15:10.370Z,7.12
2019-04-28T06:17:45.737Z,7.60
2019-04-28T06:20:21.643Z,7.25
2019-04-28T06:22:57.612Z,5.72
2019-04-28T06:25:33.560Z,5.55
2019-04-28T06:28:09.728Z,5.42
2019-04-28T06:30:45.664Z,7.78
2019-04-28T06:33:21.624Z,5.45
2019-04-28T06:35:57.591Z,7.37
2019-04-28T06:38:33.456Z,4.95
2019-04-28T06:41:09.686Z,6.10
2019-04-28T06:43:45.567Z,5.30
2019-04-28T06:46:21.582Z,4.72
2019-04-28T06:48:57.577Z,6.33
2019-04-28T06:51:33.482Z,6.62
2019-04-28T06:54:10.923Z,5.58
2019-04-28T06:56:46.883Z,3.33
2019-04-28T06:59:23.953Z,3.83
2019-04-28T07:02:00.946Z,3.98
2019-04-28T07:04:36.889Z,3.08
2019-04-28T07:07:12.860Z,6.03
2019-04-28T07:09:48.824Z,3.75
2019-04-28T07:12:24.769Z,5.15
2019-04-28T07:15:00.634Z,3.77
2019-04-28T07:17:37.051Z,3.17
2019-04-28T07:20:18.870Z,2.95
2019-04-28T07:22:54.828Z,3.47
2019-04-28T07:25:31.107Z,4.08
2019-04-28T07:28:07.049Z,3.92
2019-04-28T07:30:43.108Z,3.22
2019-04-28T07:33:21.481Z,4.65
2019-04-28T07:35:57.487Z,3.90
2019-04-28T07:38:33.446Z,4.25
2019-04-28T07:41:09.389Z,3.50
2019-04-28T07:43:45.369Z,2.98
2019-04-28T07:46:21.334Z,2.70
2019-04-28T07:48:57.275Z,4.87
2019-04-28T07:51:37.724Z,3.42
2019-04-28T07:54:15.215Z,3.90
2019-04-28T07:56:51.277Z,2.83
2019-04-28T07:59:27.231Z,5.40
2019-04-28T08:02:03.191Z,4.35
2019-04-28T08:04:39.150Z,2.27
2019-04-28T08:07:15.099Z,3.17
2019-04-28T08:09:51.066Z,5.60
2019-04-28T08:12:26.971Z,2.58
2019-04-28T08:15:03.081Z,5.60
2019-04-28T08:17:39.659Z,4.00
2019-04-28T08:20:15.812Z,2.62
2019-04-28T08:22:51.768Z,2.85
2019-04-28T08:25:27.731Z,4.30
2019-04-28T08:28:04.812Z,5.45
2019-04-28T08:30:40.753Z,3.10
2019-04-28T08:33:18.249Z,3.52
2019-04-28T08:35:54.216Z,2.98
2019-04-28T08:38:30.261Z,3.52
2019-04-28T08:41:06.220Z,5.35
2019-04-28T08:43:42.950Z,5.28
2019-04-28T08:46:18.826Z,3.87
2019-04-28T08:48:54.747Z,2.70
2019-04-28T08:51:30.670Z,2.45
2019-04-28T08:54:06.683Z,2.85
2019-04-28T08:56:42.587Z,3.75
2019-04-28T08:59:18.718Z,2.50
2019-04-28T09:01:54.635Z,2.80
2019-04-28T09:04:30.542Z,4.62
2019-04-28T09:07:06.498Z,4.25
2019-04-28T09:12:30.369Z,4.33
2019-04-28T09:15:10.718Z,3.75
2019-04-28T09:17:47.096Z,4.97
2019-04-28T09:20:23.063Z,3.45
2019-04-28T09:22:59.020Z,10.93
2019-04-28T09:25:34.966Z,7.62
2019-04-28T09:28:11.446Z,11.33
2019-04-28T09:30:47.905Z,5.90
2019-04-28T09:33:23.962Z,6.62
2019-04-28T09:35:59.919Z,3.45
2019-04-28T09:38:36.623Z,3.75
2019-04-28T09:41:12.550Z,4.08
2019-04-28T09:43:56.389Z,4.05
2019-04-28T09:46:39.920Z,3.27
2019-04-28T09:49:15.890Z,3.60
2019-04-28T09:51:51.946Z,3.35
2019-04-28T09:54:28.007Z,3.02
2019-04-28T09:57:04.160Z,6.85
2019-04-28T09:59:40.319Z,3.02
2019-04-28T10:02:16.694Z,4.00
2019-04-28T10:04:54.177Z,3.50
2019-04-28T10:07:30.100Z,4.03
2019-04-28T10:10:08.455Z,4.62
2019-04-28T10:12:44.352Z,5.00
2019-04-28T10:15:20.570Z,5.17
2019-04-28T10:17:56.933Z,4.33
2019-04-28T10:20:32.895Z,3.22
2019-04-28T10:23:08.852Z,6.22
2019-04-28T10:25:46.174Z,6.72
2019-04-28T10:28:22.092Z,4.40
2019-04-28T10:30:58.192Z,2.75
2019-04-28T10:33:34.101Z,3.87
2019-04-28T10:36:10.057Z,3.45
2019-04-28T10:38:47.614Z,5.03
2019-04-28T10:41:28.262Z,3.72
2019-04-28T10:44:05.302Z,3.47
2019-04-28T10:46:41.977Z,3.60
2019-04-28T10:49:20.332Z,3.58
2019-04-28T10:51:59.578Z,4.00
2019-04-28T10:54:33.949Z,3.60
2019-04-28T10:57:09.915Z,5.58
2019-04-28T10:59:45.971Z,4.22
2019-04-28T11:02:21.876Z,4.20
2019-04-28T11:05:08.584Z,5.17
2019-04-28T11:07:39.834Z,3.37
2019-04-28T11:10:22.268Z,4.12
2019-04-28T11:12:58.241Z,5.40
2019-04-28T11:15:37.981Z,3.60
2019-04-28T11:18:15.489Z,3.75
2019-04-28T11:20:51.474Z,4.67
2019-04-28T11:23:27.386Z,4.78
2019-04-28T11:26:03.275Z,7.35
2019-04-28T11:28:39.289Z,6.85
2019-04-28T11:31:15.358Z,5.22
2019-04-28T11:33:53.919Z,8.03
2019-04-28T11:36:29.941Z,3.90
2019-04-28T11:39:08.687Z,7.40
2019-04-28T11:41:46.152Z,4.95
2019-04-28T11:44:22.258Z,6.47
2019-04-28T11:46:58.359Z,5.78
2019-04-28T11:49:34.325Z,5.45
2019-04-28T11:52:10.343Z,6.83
2019-04-28T11:54:46.328Z,5.70
2019-04-28T11:57:22.288Z,4.08
2019-04-28T11:59:58.255Z,6.25
2019-04-28T12:02:34.197Z,5.90
2019-04-28T12:05:11.401Z,6.87
2019-04-28T12:07:47.337Z,6.53
2019-04-28T12:10:37.233Z,7.53
2019-04-28T12:13:17.683Z,8.65
2019-04-28T12:15:58.159Z,6.53
2019-04-28T12:18:44.859Z,9.03
2019-04-28T12:21:21.231Z,9.23
2019-04-28T12:23:57.194Z,6.55
2019-04-28T12:26:33.147Z,7.35
2019-04-28T12:29:09.105Z,9.05
2019-04-28T12:31:45.056Z,7.95
2019-04-28T12:34:21.002Z,6.87
2019-04-28T12:36:56.972Z,8.38
2019-04-28T12:39:33.018Z,8.70
2019-04-28T12:42:09.956Z,7.55
2019-04-28T12:44:46.257Z,7.83
2019-04-28T12:47:22.228Z,7.17
2019-04-28T12:49:59.828Z,7.47
2019-04-28T12:52:35.873Z,6.00
2019-04-28T12:55:12.138Z,7.10
2019-04-28T12:57:48.101Z,8.30
2019-04-28T13:00:28.905Z,8.73
2019-04-28T13:03:22.948Z,5.75
2019-04-28T13:06:04.004Z,6.58
2019-04-28T13:08:38.734Z,6.70
2019-04-28T13:11:16.058Z,7.72
2019-04-28T13:13:52.106Z,5.85
2019-04-28T13:16:28.059Z,12.82
2019-04-28T13:19:04.582Z,7.47
2019-04-28T13:21:42.262Z,5.80
2019-04-28T13:24:18.184Z,11.00
2019-04-28T13:26:54.452Z,7.00
2019-04-28T13:29:30.493Z,7.28
2019-04-28T13:32:07.573Z,6.65
2019-04-28T13:34:43.972Z,6.83
2019-04-28T13:37:20.013Z,7.85
2019-04-28T13:40:00.564Z,6.28
2019-04-28T13:42:36.537Z,8.18
2019-04-28T13:45:14.464Z,6.53
2019-04-28T13:47:50.393Z,11.50
2019-04-28T13:50:31.364Z,7.35
2019-04-28T13:53:07.836Z,10.43
2019-04-28T13:55:48.706Z,10.80
2019-04-28T13:58:26.313Z,7.03
2019-04-28T14:01:07.322Z,8.88
2019-04-28T14:04:00.422Z,11.80
2019-04-28T14:06:38.020Z,8.53
2019-04-28T14:09:15.775Z,10.70
2019-04-28T14:11:51.772Z,8.13
2019-04-28T14:14:27.717Z,8.75
2019-04-28T14:17:03.844Z,6.80
2019-04-28T14:19:39.961Z,8.58
2019-04-28T14:22:16.009Z,10.20
2019-04-28T14:24:51.997Z,10.53
2019-04-28T14:27:28.196Z,11.95
2019-04-28T14:30:06.075Z,11.57
2019-04-28T14:32:42.099Z,12.75
2019-04-28T14:35:18.259Z,10.98
2019-04-28T14:37:54.230Z,14.10
2019-04-28T14:40:33.616Z,12.18
2019-04-28T14:43:10.335Z,10.68
2019-04-28T14:45:46.589Z,17.25
2019-04-28T14:48:22.535Z,11.25
2019-04-28T14:50:58.496Z,13.95
2019-04-28T14:53:34.671Z,14.93
2019-04-28T14:56:10.723Z,14.98
2019-04-28T14:58:47.641Z,13.30
2019-04-28T15:01:37.214Z,14.58
2019-04-28T15:04:16.603Z,14.30
2019-04-28T15:07:06.286Z,14.20
2019-04-28T15:10:00.272Z,13.90
2019-04-28T15:12:37.450Z,22.05
2019-04-28T15:15:13.721Z,12.40
2019-04-28T15:17:49.820Z,12.75
2019-04-28T15:20:26.020Z,12.10
2019-04-28T15:23:03.121Z,14.70
2019-04-28T15:25:39.183Z,15.63
2019-04-28T15:28:15.242Z,16.17
2019-04-28T15:30:51.302Z,13.38
2019-04-28T15:33:27.246Z,14.13
2019-04-28T15:36:03.215Z,15.60
2019-04-28T15:38:39.285Z,15.18
2019-04-28T15:41:21.808Z,15.85
2019-04-28T15:43:52.917Z,16.70
2019-04-28T15:46:28.873Z,16.85
2019-04-28T15:49:04.839Z,19.20
2019-04-28T15:51:40.728Z,14.25
2019-04-28T15:54:16.775Z,18.55
2019-04-28T15:56:52.703Z,16.57
2019-04-28T15:59:28.770Z,14.65
2019-04-28T16:02:04.866Z,15.68
2019-04-28T16:04:41.344Z,21.95
2019-04-28T16:07:24.656Z,22.82
2019-04-28T16:09:55.044Z,15.32
2019-04-28T16:12:31.102Z,19.42
2019-04-28T16:15:07.640Z,15.58
2019-04-28T16:17:43.625Z,17.75
2019-04-28T16:20:19.685Z,16.23
2019-04-28T16:22:55.958Z,15.72
2019-04-28T16:25:31.901Z,14.30
2019-04-28T16:28:09.404Z,15.28
2019-04-28T16:30:45.354Z,11.43
2019-04-28T16:33:21.306Z,14.68
2019-04-28T16:35:58.402Z,13.80
2019-04-28T16:38:34.359Z,17.37
2019-04-28T16:41:11.334Z,12.43
2019-04-28T16:43:47.944Z,14.78
2019-04-28T16:46:23.957Z,15.05
2019-04-28T16:48:59.918Z,19.25
2019-04-28T16:51:35.882Z,18.85
2019-04-28T16:54:11.941Z,18.00
2019-04-28T16:56:59.369Z,20.00
2019-04-28T16:59:46.073Z,18.02
2019-04-28T17:02:23.577Z,19.60
2019-04-28T17:04:59.521Z,16.57
2019-04-28T17:07:35.414Z,17.30
2019-04-28T17:10:11.540Z,15.88
2019-04-28T17:12:47.483Z,20.75
2019-04-28T17:15:23.655Z,15.65
2019-04-28T17:17:59.603Z,12.07
2019-04-28T17:20:35.748Z,11.80
2019-04-28T17:23:13.724Z,14.38
2019-04-28T17:25:50.035Z,17.12
2019-04-28T17:28:26.089Z,19.87
2019-04-28T17:31:02.119Z,19.10
2019-04-28T17:33:38.114Z,23.75
2019-04-28T17:36:14.061Z,17.00
2019-04-28T17:38:50.034Z,15.70
2019-04-28T17:41:26.282Z,16.80
2019-04-28T17:44:02.237Z,18.37
2019-04-28T17:46:38.311Z,27.70
2019-04-28T17:49:14.263Z,23.45
2019-04-28T17:51:50.800Z,18.85
2019-04-28T17:54:26.749Z,26.30
2019-04-28T17:57:02.737Z,25.45
2019-04-28T17:59:39.104Z,24.95
2019-04-28T18:02:32.876Z,19.15
2019-04-28T18:05:13.541Z,14.95
2019-04-28T18:07:50.740Z,15.93
2019-04-28T18:10:28.320Z,16.73
2019-04-28T18:13:04.439Z,20.27
2019-04-28T18:15:59.999Z,15.72
2019-04-28T18:18:37.487Z,12.25
2019-04-28T18:21:13.377Z,12.13
2019-04-28T18:23:49.412Z,14.55
2019-04-28T18:26:25.332Z,13.40
2019-04-28T18:29:01.735Z,19.42
2019-04-28T18:31:58.029Z,19.55
2019-04-28T18:34:47.748Z,23.70
2019-04-28T18:37:40.191Z,17.17
2019-04-28T18:40:27.083Z,19.77
2019-04-28T18:43:05.335Z,15.85
2019-04-28T18:45:41.266Z,18.80
2019-04-28T18:48:17.151Z,21.77
2019-04-28T18:50:53.106Z,21.17
2019-04-28T18:53:28.997Z,25.15
2019-04-28T18:56:04.953Z,22.80
2019-04-28T18:58:40.878Z,25.97
2019-04-28T19:01:33.750Z,26.23
2019-04-28T19:04:09.771Z,28.10
2019-04-28T19:06:45.716Z,28.42
2019-04-28T19:09:23.247Z,30.15
2019-04-28T19:12:06.741Z,24.30
2019-04-28T19:14:59.446Z,26.37
2019-04-28T19:17:43.197Z,32.13
2019-04-28T19:20:19.144Z,33.75
2019-04-28T19:22:55.077Z,42.25
2019-04-28T19:25:30.961Z,37.83
2019-04-28T19:28:07.865Z,31.25
2019-04-28T19:30:45.716Z,32.90
2019-04-28T19:33:22.240Z,22.07
2019-04-28T19:35:58.421Z,25.37
2019-04-28T19:38:34.367Z,26.12
2019-04-28T19:41:10.604Z,29.18
2019-04-28T19:43:46.553Z,25.85
2019-04-28T19:46:22.473Z,21.17
2019-04-28T19:48:58.527Z,28.02
2019-04-28T19:51:34.910Z,35.52
2019-04-28T19:54:11.508Z,30.10
2019-04-28T19:57:07.151Z,22.90
2019-04-28T20:00:01.716Z,27.52
2019-04-28T20:02:39.252Z,24.60
2019-04-28T20:05:15.168Z,23.70
2019-04-28T20:07:51.215Z,22.90
2019-04-28T20:10:27.137Z,22.58
2019-04-28T20:13:03.019Z,26.60
2019-04-28T20:15:39.030Z,31.40
2019-04-28T20:18:14.949Z,24.82
2019-04-28T20:20:50.861Z,25.48
2019-04-28T20:23:26.993Z,23.42
2019-04-28T20:26:03.114Z,24.82
2019-04-28T20:28:39.184Z,24.85
2019-04-28T20:31:15.068Z,32.65
2019-04-28T20:33:50.962Z,34.40
2019-04-28T20:36:32.972Z,28.12
2019-04-28T20:39:10.716Z,32.58
2019-04-28T20:41:48.133Z,33.88
2019-04-28T20:44:24.104Z,34.20
2019-04-28T20:47:00.030Z,33.42
2019-04-28T20:49:35.956Z,38.55
2019-04-28T20:52:11.898Z,34.80
2019-04-28T20:54:47.784Z,30.23
2019-04-28T20:57:23.716Z,38.40
2019-04-28T20:59:59.887Z,36.35
2019-04-28T21:02:37.605Z,35.85
2019-04-28T21:05:13.534Z,32.60
2019-04-28T21:07:49.467Z,34.92
2019-04-28T21:10:37.291Z,34.10
2019-04-28T21:13:03.039Z,32.48
2019-04-28T21:15:38.982Z,37.33
2019-04-28T21:18:14.925Z,38.42
2019-04-28T21:20:51.382Z,33.98
2019-04-28T21:23:27.307Z,32.00
2019-04-28T21:26:03.185Z,29.40
2019-04-28T21:28:39.312Z,32.67
2019-04-28T21:31:15.228Z,32.85
2019-04-28T21:33:51.164Z,32.55
2019-04-28T21:36:27.108Z,31.50
2019-04-28T21:39:03.026Z,29.32
2019-04-28T21:41:40.716Z,30.65
2019-04-28T21:44:18.215Z,29.12
2019-04-28T21:46:58.716Z,28.92
2019-04-28T21:49:36.205Z,27.13
2019-04-28T21:52:12.381Z,26.73
2019-04-28T21:54:48.338Z,27.85
2019-04-28T21:57:24.224Z,29.82
2019-04-28T22:00:00.171Z,28.20
2019-04-28T22:02:36.188Z,30.40
2019-04-28T22:05:12.343Z,28.05
2019-04-28T22:07:49.518Z,24.95
2019-04-28T22:10:25.455Z,27.87
2019-04-28T22:13:01.416Z,25.80
2019-04-28T22:15:37.368Z,25.35
2019-04-28T22:18:13.325Z,24.15
2019-04-28T22:20:50.420Z,24.05
2019-04-28T22:23:40.294Z,34.88
2019-04-28T22:26:32.941Z,28.47
2019-04-28T22:29:09.526Z,23.18
2019-04-28T22:31:45.957Z,23.02
2019-04-28T22:34:22.039Z,29.60
2019-04-28T22:36:57.991Z,26.87
2019-04-28T22:39:33.961Z,27.75
2019-04-28T22:42:11.410Z,26.97
2019-04-28T22:44:47.473Z,26.60
2019-04-28T22:47:23.416Z,26.23
2019-04-28T22:49:59.415Z,23.30
2019-04-28T22:52:35.381Z,19.45
2019-04-28T22:55:12.859Z,22.58
2019-04-28T22:57:50.468Z,19.25
2019-04-28T23:00:41.159Z,21.05
2019-04-28T23:03:25.014Z,21.62
2019-04-28T23:06:01.059Z,19.57
2019-04-28T23:08:37.015Z,20.90
2019-04-28T23:11:12.920Z,21.27
2019-04-28T23:13:48.828Z,19.05
2019-04-28T23:16:24.721Z,20.40
2019-04-28T23:19:01.842Z,22.35
2019-04-28T23:21:40.430Z,22.98
2019-04-28T23:24:16.358Z,20.05
2019-04-28T23:26:52.315Z,21.73
2019-04-28T23:29:30.567Z,23.10
2019-04-28T23:32:06.103Z,21.35
2019-04-28T23:34:42.065Z,21.65
2019-04-28T23:37:17.986Z,18.23
2019-04-28T23:39:53.894Z,19.15
2019-04-28T23:42:34.381Z,19.42
2019-04-28T23:45:12.253Z,19.07
2019-04-28T23:47:48.127Z,18.92
2019-04-28T23:50:41.072Z,17.35
2019-04-28T23:53:18.581Z,20.00
2019-04-28T23:55:54.505Z,15.18
2019-04-28T23:58:30.428Z,16.75
